The Farmers Guide 72-hour weather forecast

Enter Postcode:

Clear

(00:00)

2.2°C

IP2 0SS

Wind Soil
Date Time Weather Temp Rain Humid Cloud Press (mph) Temp Moist
12/02 00:00 2.2°C 0.0mm 86% 0% 1001mb 5ssw (198 degrees) 3.3°C 0.3%
03:00 1.8°C 0.0mm 90% 0% 1000mb 5s (169 degrees) 3.1°C 0.3%
06:00 3.2°C 0.0mm 88% 18% 998mb 6se (129 degrees) 2.9°C 0.3%
09:00 5.4°C 0.0mm 84% 94% 997mb 8se (142 degrees) 2.9°C 0.3%
12:00 6.9°C 0.0mm 74% 91% 996mb 13se (127 degrees) 3.9°C 0.3%
15:00 6.5°C 0.0mm 78% 99% 995mb 12see (119 degrees) 5.1°C 0.3%
18:00 5.0°C 0.0mm 82% 97% 995mb 8e (98 degrees) 5.2°C 0.3%
21:00 5.1°C 0.0mm 81% 93% 995mb 8e (92 degrees) 4.9°C 0.3%
13/02 00:00 4.5°C 0.0mm 82% 89% 995mb 7see (114 degrees) 4.6°C 0.3%
03:00 4.0°C 0.0mm 82% 90% 993mb 9e (85 degrees) 4.3°C 0.3%
06:00 4.1°C 0.0mm 81% 85% 991mb 11e (85 degrees) 4.1°C 0.3%
09:00 4.8°C 0.0mm 76% 44% 990mb 13e (83 degrees) 3.9°C 0.3%
12:00 6.6°C 0.0mm 65% 64% 990mb 16nee (72 degrees) 4.9°C 0.3%
15:00 6.2°C 0.0mm 66% 98% 990mb 14nee (61 degrees) 5.7°C 0.3%
18:00 3.8°C 0.0mm 79% 81% 991mb 10ne (35 degrees) 5.2°C 0.3%
21:00 3.9°C 0.0mm 80% 98% 992mb 8nne (29 degrees) 4.6°C 0.3%
14/02 00:00 3.8°C 0.0mm 80% 99% 992mb 9nne (24 degrees) 4.2°C 0.3%
03:00 3.4°C 0.0mm 81% 100% 992mb 8nne (22 degrees) 3.9°C 0.3%
06:00 3.4°C 0.0mm 82% 100% 993mb 9nne (24 degrees) 3.7°C 0.3%
09:00 4.5°C 0.0mm 76% 99% 995mb 11nne (30 degrees) 3.6°C 0.3%
12:00 6.9°C 0.0mm 63% 95% 997mb 13ne (39 degrees) 4.7°C 0.3%
15:00 6.5°C 0.0mm 64% 69% 999mb 13nne (31 degrees) 5.7°C 0.3%
18:00 3.3°C 0.0mm 77% 62% 1002mb 10n (9 degrees) 5.2°C 0.3%
21:00 2.1°C 0.0mm 78% 62% 1006mb 10n (358 degrees) 4.2°C 0.3%
The Farmers Guide weather forecast is a free service for users of this website.
 
We now carry forecasts based on postcodes. Just enter your postcode and the weather page will display the forecast for the following 72 hours, broken down into three-hour intervals.
 
The forecast data provided for each three-hour period includes: a general graphic showing the likely weather conditions; average temperatures for the period; cloud cover; barometric pressure; wind speed and direction; humidity; and rainfall.
 
An indication of the likely soil temperature and soil moisture will also be displayed for most postcodes, although this data is not available for every area.
 
We hope you will find this service useful and would welcome any feedback from you.
 
 

Search

Read our full February issue here FREE!

Advertisements